createdAt,value
2019-04-28T00:01:01.052Z,10.30
2019-04-28T00:03:28.313Z,10.30
2019-04-28T00:05:55.197Z,10.30
2019-04-28T00:08:22.116Z,10.30
2019-04-28T00:10:49.150Z,10.20
2019-04-28T00:13:16.368Z,10.20
2019-04-28T00:15:43.277Z,10.20
2019-04-28T00:18:11.951Z,10.10
2019-04-28T00:21:00.924Z,10.10
2019-04-28T00:23:31.815Z,10.10
2019-04-28T00:26:01.532Z,10.00
2019-04-28T00:28:28.632Z,10.00
2019-04-28T00:30:55.516Z,9.90
2019-04-28T00:33:22.683Z,9.90
2019-04-28T00:35:51.481Z,9.80
2019-04-28T00:38:18.607Z,9.80
2019-04-28T00:40:45.485Z,9.70
2019-04-28T00:43:12.447Z,9.70
2019-04-28T00:45:41.250Z,9.70
2019-04-28T00:48:08.348Z,9.70
2019-04-28T00:50:35.334Z,9.70
2019-04-28T00:53:02.425Z,9.70
2019-04-28T00:55:29.323Z,9.60
2019-04-28T00:58:07.377Z,9.60
2019-04-28T01:00:38.896Z,9.60
2019-04-28T01:03:06.025Z,9.60
2019-04-28T01:05:33.112Z,9.60
2019-04-28T01:08:01.131Z,9.60
2019-04-28T01:10:30.866Z,9.60
2019-04-28T01:12:58.013Z,9.70
2019-04-28T01:15:39.680Z,9.60
2019-04-28T01:18:10.466Z,9.60
2019-04-28T01:20:37.529Z,9.60
2019-04-28T01:23:05.146Z,9.60
2019-04-28T01:25:32.176Z,9.70
2019-04-28T01:28:00.179Z,9.70
2019-04-28T01:30:41.476Z,9.70
2019-04-28T01:33:16.403Z,9.70
2019-04-28T01:35:43.421Z,9.60
2019-04-28T01:38:12.298Z,9.60
2019-04-28T01:40:39.169Z,9.50
2019-04-28T01:43:06.232Z,9.40
2019-04-28T01:45:33.475Z,9.40
2019-04-28T01:48:02.198Z,9.30
2019-04-28T01:50:29.980Z,9.20
2019-04-28T01:52:56.988Z,9.20
2019-04-28T01:55:23.960Z,9.20
2019-04-28T01:57:51.092Z,9.10
2019-04-28T02:00:24.876Z,9.10
2019-04-28T02:02:47.423Z,9.10
2019-04-28T02:05:14.940Z,9.00
2019-04-28T02:07:41.935Z,9.00
2019-04-28T02:10:10.261Z,9.00
2019-04-28T02:12:37.444Z,9.00
2019-04-28T02:15:04.708Z,8.90
2019-04-28T02:17:31.635Z,8.90
2019-04-28T02:20:00.538Z,8.90
2019-04-28T02:22:32.828Z,8.90
2019-04-28T02:25:00.363Z,8.90
2019-04-28T02:27:27.780Z,8.90
2019-04-28T02:29:54.691Z,8.90
2019-04-28T02:32:24.378Z,8.90
2019-04-28T02:34:50.881Z,8.90
2019-04-28T02:37:20.275Z,8.90
2019-04-28T02:39:46.914Z,8.90
2019-04-28T02:42:13.914Z,8.90
2019-04-28T02:44:40.964Z,8.90
2019-04-28T02:47:09.896Z,8.90
2019-04-28T02:49:40.597Z,8.90
2019-04-28T02:52:10.747Z,8.90
2019-04-28T02:54:40.285Z,8.90
2019-04-28T02:57:06.855Z,8.90
2019-04-28T02:59:33.898Z,8.80
2019-04-28T03:02:00.873Z,8.80
2019-04-28T03:04:30.705Z,8.70
2019-04-28T03:06:56.880Z,8.70
2019-04-28T03:09:23.904Z,8.70
2019-04-28T03:11:51.548Z,8.60
2019-04-28T03:14:20.890Z,8.60
2019-04-28T03:16:50.820Z,8.50
2019-04-28T03:19:17.157Z,8.50
2019-04-28T03:21:46.826Z,8.50
2019-04-28T03:24:14.266Z,8.50
2019-04-28T03:26:50.893Z,8.50
2019-04-28T03:29:22.531Z,8.40
2019-04-28T03:32:15.570Z,8.40
2019-04-28T03:34:25.131Z,8.40
2019-04-28T03:36:52.290Z,8.40
2019-04-28T03:39:20.465Z,8.50
2019-04-28T03:41:50.051Z,8.40
2019-04-28T03:44:16.535Z,8.40
2019-04-28T03:46:51.176Z,8.40
2019-04-28T03:49:31.521Z,8.40
2019-04-28T03:52:00.454Z,8.30
2019-04-28T03:54:27.486Z,8.40
2019-04-28T03:56:54.547Z,8.40
2019-04-28T03:59:21.533Z,8.40
2019-04-28T04:01:56.707Z,8.40
2019-04-28T04:04:21.326Z,8.40
2019-04-28T04:06:48.030Z,8.40
2019-04-28T04:09:15.698Z,8.40
2019-04-28T04:11:47.071Z,8.40
2019-04-28T04:14:22.053Z,8.40
2019-04-28T04:16:50.884Z,8.30
2019-04-28T04:19:20.156Z,8.30
2019-04-28T04:21:46.840Z,8.40
2019-04-28T04:24:13.984Z,8.30
2019-04-28T04:26:41.212Z,8.30
2019-04-28T04:29:10.145Z,8.30
2019-04-28T04:31:37.323Z,8.30
2019-04-28T04:34:04.342Z,8.20
2019-04-28T04:36:31.423Z,8.20
2019-04-28T04:39:01.383Z,8.30
2019-04-28T04:41:27.625Z,8.30
2019-04-28T04:43:54.557Z,8.40
2019-04-28T04:46:23.543Z,8.40
2019-04-28T04:48:50.939Z,8.40
2019-04-28T04:51:21.359Z,8.50
2019-04-28T04:53:51.077Z,8.50
2019-04-28T04:56:17.613Z,8.50
2019-04-28T04:58:44.515Z,8.50
2019-04-28T05:01:14.698Z,8.60
2019-04-28T05:03:46.308Z,8.60
2019-04-28T05:06:32.182Z,8.70
2019-04-28T05:09:01.804Z,8.70
2019-04-28T05:11:29.989Z,8.70
2019-04-28T05:13:57.178Z,8.80
2019-04-28T05:16:24.294Z,8.80
2019-04-28T05:18:51.381Z,8.80
2019-04-28T05:21:19.208Z,8.80
2019-04-28T05:23:55.190Z,8.90
2019-04-28T05:26:23.802Z,8.90
2019-04-28T05:28:53.238Z,8.90
2019-04-28T05:31:24.333Z,8.90
2019-04-28T05:33:49.888Z,8.90
2019-04-28T05:36:16.960Z,8.90
2019-04-28T05:38:43.995Z,8.90
2019-04-28T05:41:11.162Z,8.90
2019-04-28T05:43:38.033Z,8.90
2019-04-28T05:46:04.973Z,9.00
2019-04-28T05:48:36.936Z,9.00
2019-04-28T05:51:09.409Z,9.10
2019-04-28T05:53:41.761Z,9.20
2019-04-28T05:56:10.654Z,9.20
2019-04-28T05:58:43.637Z,9.20
2019-04-28T06:01:16.913Z,9.30
2019-04-28T06:03:44.580Z,9.30
2019-04-28T06:06:11.673Z,9.50
2019-04-28T06:08:46.511Z,9.60
2019-04-28T06:11:33.650Z,9.60
2019-04-28T06:14:00.536Z,9.60
2019-04-28T06:16:27.606Z,9.60
2019-04-28T06:18:54.683Z,9.60
2019-04-28T06:21:21.814Z,9.70
2019-04-28T06:23:50.124Z,9.80
2019-04-28T06:26:17.725Z,9.90
2019-04-28T06:28:46.085Z,9.90
2019-04-28T06:31:13.566Z,9.90
2019-04-28T06:33:40.472Z,9.90
2019-04-28T06:36:07.467Z,9.90
2019-04-28T06:38:34.442Z,9.80
2019-04-28T06:41:01.683Z,9.80
2019-04-28T06:43:28.716Z,9.80
2019-04-28T06:45:55.795Z,9.70
2019-04-28T06:48:22.844Z,9.80
2019-04-28T06:50:49.828Z,9.80
2019-04-28T06:53:16.805Z,9.80
2019-04-28T06:55:43.808Z,9.80
2019-04-28T06:58:10.770Z,9.90
2019-04-28T07:00:37.819Z,9.90
2019-04-28T07:03:05.966Z,10.00
2019-04-28T07:05:34.265Z,10.10
2019-04-28T07:08:01.337Z,10.20
2019-04-28T07:10:28.285Z,10.30
2019-04-28T07:12:55.359Z,10.50
2019-04-28T07:15:22.521Z,10.70
2019-04-28T07:17:49.524Z,10.70
2019-04-28T07:20:30.712Z,10.80
2019-04-28T07:22:57.836Z,10.90
2019-04-28T07:25:24.740Z,11.10
2019-04-28T07:27:51.945Z,11.20
2019-04-28T07:30:19.230Z,11.10
2019-04-28T07:32:46.109Z,11.10
2019-04-28T07:35:13.276Z,11.00
2019-04-28T07:37:40.179Z,11.00
2019-04-28T07:40:07.164Z,11.00
2019-04-28T07:42:34.109Z,10.90
2019-04-28T07:45:01.888Z,10.80
2019-04-28T07:47:31.313Z,10.80
2019-04-28T07:49:58.361Z,10.70
2019-04-28T07:52:34.316Z,10.70
2019-04-28T07:55:01.229Z,10.70
2019-04-28T07:57:28.239Z,10.70
2019-04-28T07:59:55.250Z,10.70
2019-04-28T08:02:22.201Z,10.80
2019-04-28T08:04:49.249Z,10.90
2019-04-28T08:07:16.132Z,10.90
2019-04-28T08:09:43.029Z,11.00
2019-04-28T08:12:09.908Z,11.20
2019-04-28T08:14:37.083Z,11.30
2019-04-28T08:17:04.216Z,11.40
2019-04-28T08:19:31.273Z,11.50
2019-04-28T08:21:58.283Z,11.60
2019-04-28T08:24:25.261Z,11.70
2019-04-28T08:26:52.296Z,11.60
2019-04-28T08:29:19.263Z,11.70
2019-04-28T08:31:57.009Z,11.70
2019-04-28T08:34:24.009Z,11.80
2019-04-28T08:36:51.200Z,12.00
2019-04-28T08:39:18.262Z,12.00
2019-04-28T08:41:45.333Z,12.10
2019-04-28T08:44:12.293Z,12.10
2019-04-28T08:46:39.255Z,12.00
2019-04-28T08:49:06.157Z,12.10
2019-04-28T08:51:33.233Z,12.10
2019-04-28T08:54:00.449Z,12.10
2019-04-28T08:56:28.791Z,12.20
2019-04-28T08:58:55.809Z,12.30
2019-04-28T09:01:23.444Z,12.50
2019-04-28T09:03:50.401Z,12.60
2019-04-28T09:06:17.327Z,12.80
2019-04-28T09:08:44.382Z,12.90
2019-04-28T09:11:11.424Z,13.00
2019-04-28T09:13:43.541Z,13.00
2019-04-28T09:16:09.541Z,13.00
2019-04-28T09:18:36.624Z,13.00
2019-04-28T09:21:03.542Z,13.00
2019-04-28T09:23:32.576Z,13.10
2019-04-28T09:25:59.739Z,13.10
2019-04-28T09:28:26.677Z,13.20
2019-04-28T09:30:54.993Z,13.30
2019-04-28T09:33:22.044Z,13.50
2019-04-28T09:35:49.132Z,13.80
2019-04-28T09:38:16.038Z,13.90
2019-04-28T09:40:43.053Z,14.00
2019-04-28T09:43:11.979Z,14.10
2019-04-28T09:45:49.872Z,14.20
2019-04-28T09:48:16.920Z,14.40
2019-04-28T09:50:44.075Z,14.60
2019-04-28T09:53:13.996Z,14.60
2019-04-28T09:55:41.064Z,14.80
2019-04-28T09:58:08.086Z,14.90
2019-04-28T10:00:37.086Z,15.00
2019-04-28T10:03:04.324Z,15.10
2019-04-28T10:05:31.446Z,15.30
2019-04-28T10:07:58.400Z,15.40
2019-04-28T10:10:25.276Z,15.30
2019-04-28T10:12:52.147Z,15.20
2019-04-28T10:15:19.248Z,15.10
2019-04-28T10:17:46.167Z,15.10
2019-04-28T10:20:14.850Z,14.90
2019-04-28T10:22:42.081Z,14.70
2019-04-28T10:25:10.029Z,14.60
2019-04-28T10:27:37.036Z,14.50
2019-04-28T10:30:05.017Z,14.50
2019-04-28T10:32:31.990Z,14.40
2019-04-28T10:34:58.943Z,14.40
2019-04-28T10:37:26.116Z,14.20
2019-04-28T10:40:01.028Z,14.20
2019-04-28T10:42:28.091Z,14.30
2019-04-28T10:44:55.166Z,14.30
2019-04-28T10:47:22.408Z,14.30
2019-04-28T10:49:49.473Z,14.40
2019-04-28T10:52:16.349Z,14.30
2019-04-28T10:54:43.245Z,14.30
2019-04-28T10:57:10.114Z,14.10
2019-04-28T10:59:37.228Z,14.10
2019-04-28T11:02:04.414Z,14.10
2019-04-28T11:04:39.389Z,14.10
2019-04-28T11:07:07.844Z,14.00
2019-04-28T11:09:39.243Z,14.00
2019-04-28T11:12:08.252Z,14.00
2019-04-28T11:14:35.319Z,14.00
2019-04-28T11:17:02.415Z,14.20
2019-04-28T11:19:29.443Z,14.30
2019-04-28T11:21:56.311Z,14.40
2019-04-28T11:24:23.254Z,14.40
2019-04-28T11:26:50.526Z,14.40
2019-04-28T11:29:19.094Z,14.30
2019-04-28T11:31:46.231Z,14.30
2019-04-28T11:34:31.754Z,14.30
2019-04-28T11:36:59.096Z,14.30
2019-04-28T11:39:31.181Z,14.40
2019-04-28T11:41:58.235Z,14.30
2019-04-28T11:44:25.316Z,14.40
2019-04-28T11:46:52.613Z,14.40
2019-04-28T11:49:19.681Z,14.50
2019-04-28T11:51:47.005Z,14.60
2019-04-28T11:54:16.944Z,14.70
2019-04-28T11:56:44.404Z,14.70
2019-04-28T11:59:11.504Z,14.80
2019-04-28T12:01:38.485Z,14.90
2019-04-28T12:04:07.410Z,15.00
2019-04-28T12:06:34.399Z,15.20
2019-04-28T12:09:03.216Z,15.30
2019-04-28T12:11:32.158Z,15.40
2019-04-28T12:14:07.061Z,15.40
2019-04-28T12:16:41.954Z,15.50
2019-04-28T12:19:26.119Z,15.50
2019-04-28T12:21:53.242Z,15.60
2019-04-28T12:24:23.979Z,15.60
2019-04-28T12:26:51.336Z,15.70
2019-04-28T12:29:19.380Z,15.70
2019-04-28T12:31:46.302Z,15.60
2019-04-28T12:34:13.385Z,15.60
2019-04-28T12:36:40.289Z,15.70
2019-04-28T12:39:07.559Z,15.60
2019-04-28T12:41:34.676Z,15.70
2019-04-28T12:44:01.820Z,15.60
2019-04-28T12:46:29.033Z,15.50
2019-04-28T12:48:57.901Z,15.40
2019-04-28T12:51:24.910Z,15.40
2019-04-28T12:53:53.916Z,15.40
2019-04-28T12:56:20.832Z,15.30
2019-04-28T12:58:49.724Z,15.30
2019-04-28T13:01:24.073Z,15.20
2019-04-28T13:04:09.542Z,15.20
2019-04-28T13:06:36.518Z,15.10
2019-04-28T13:09:05.555Z,15.10
2019-04-28T13:11:32.578Z,15.10
2019-04-28T13:13:59.704Z,15.10
2019-04-28T13:16:26.855Z,15.10
2019-04-28T13:18:53.856Z,15.00
2019-04-28T13:21:23.401Z,15.00
2019-04-28T13:23:50.368Z,15.10
2019-04-28T13:26:17.473Z,15.20
2019-04-28T13:28:45.773Z,15.20
2019-04-28T13:31:12.903Z,15.10
2019-04-28T13:33:53.805Z,15.00
2019-04-28T13:36:14.975Z,14.80
2019-04-28T13:38:39.030Z,14.80
2019-04-28T13:41:06.168Z,14.70
2019-04-28T13:43:33.380Z,14.60
2019-04-28T13:46:00.467Z,14.50
2019-04-28T13:48:27.621Z,14.50
2019-04-28T13:50:55.854Z,14.50
2019-04-28T13:53:24.694Z,14.50
2019-04-28T13:55:59.453Z,14.40
2019-04-28T13:58:31.149Z,14.40
2019-04-28T14:01:12.414Z,14.30
2019-04-28T14:03:59.591Z,14.30
2019-04-28T14:06:31.498Z,14.30
2019-04-28T14:08:58.631Z,14.40
2019-04-28T14:11:25.813Z,14.60
2019-04-28T14:13:52.795Z,14.70
2019-04-28T14:16:20.125Z,14.70
2019-04-28T14:18:47.218Z,14.90
2019-04-28T14:21:14.129Z,15.00
2019-04-28T14:23:41.051Z,15.10
2019-04-28T14:26:08.157Z,15.10
2019-04-28T14:28:35.136Z,15.10
2019-04-28T14:31:02.114Z,15.10
2019-04-28T14:33:29.340Z,15.10
2019-04-28T14:35:56.317Z,15.10
2019-04-28T14:38:23.443Z,15.10
2019-04-28T14:40:50.397Z,15.10
2019-04-28T14:43:17.337Z,15.10
2019-04-28T14:45:44.578Z,15.20
2019-04-28T14:48:13.374Z,15.10
2019-04-28T14:50:40.353Z,15.10
2019-04-28T14:53:08.811Z,15.20
2019-04-28T14:55:36.096Z,15.20
2019-04-28T14:58:03.154Z,15.20
2019-04-28T15:00:32.022Z,15.20
2019-04-28T15:03:01.074Z,15.10
2019-04-28T15:05:36.007Z,15.10
2019-04-28T15:08:21.849Z,15.10
2019-04-28T15:10:50.763Z,15.10
2019-04-28T15:13:18.820Z,15.10
2019-04-28T15:15:45.888Z,15.10
2019-04-28T15:18:12.983Z,15.10
2019-04-28T15:20:40.019Z,15.10
2019-04-28T15:23:07.060Z,15.10
2019-04-28T15:25:34.171Z,15.10
2019-04-28T15:28:01.372Z,15.20
2019-04-28T15:30:30.143Z,15.10
2019-04-28T15:32:57.138Z,15.20
2019-04-28T15:35:24.058Z,15.10
2019-04-28T15:37:51.123Z,15.10
2019-04-28T15:40:19.868Z,15.00
2019-04-28T15:42:46.775Z,15.00
2019-04-28T15:45:14.131Z,15.00
2019-04-28T15:47:43.877Z,15.00
2019-04-28T15:50:13.286Z,14.90
2019-04-28T15:52:43.733Z,14.90
2019-04-28T15:55:12.666Z,14.90
2019-04-28T15:57:40.975Z,14.90
2019-04-28T16:00:10.877Z,14.90
2019-04-28T16:02:38.503Z,14.90
2019-04-28T16:05:05.834Z,14.90
2019-04-28T16:07:32.830Z,14.90
2019-04-28T16:10:00.047Z,14.90
2019-04-28T16:12:27.149Z,15.00
2019-04-28T16:14:54.156Z,15.00
2019-04-28T16:17:22.948Z,15.00
2019-04-28T16:19:49.973Z,15.00
2019-04-28T16:22:17.522Z,15.00
2019-04-28T16:24:45.201Z,15.00
2019-04-28T16:27:14.152Z,15.00
2019-04-28T16:29:41.833Z,15.00
2019-04-28T16:32:09.867Z,15.00
2019-04-28T16:34:37.692Z,15.00
2019-04-28T16:37:05.288Z,15.00
2019-04-28T16:39:32.911Z,15.10
2019-04-28T16:42:07.169Z,15.10
2019-04-28T16:44:42.155Z,15.10
2019-04-28T16:47:09.923Z,15.10
2019-04-28T16:49:37.583Z,15.00
2019-04-28T16:52:07.229Z,15.10
2019-04-28T16:54:34.998Z,15.10
2019-04-28T16:57:04.307Z,15.10
2019-04-28T16:59:36.517Z,15.00
2019-04-28T17:02:05.794Z,15.00
2019-04-28T17:04:33.342Z,15.00
2019-04-28T17:07:00.606Z,15.00
2019-04-28T17:09:27.610Z,14.90
2019-04-28T17:11:54.596Z,14.90
2019-04-28T17:14:22.093Z,14.90
2019-04-28T17:16:49.586Z,14.70
2019-04-28T17:19:16.809Z,14.60
2019-04-28T17:21:43.963Z,14.60
2019-04-28T17:24:10.913Z,14.60
2019-04-28T17:26:38.979Z,14.50
2019-04-28T17:29:06.103Z,14.40
2019-04-28T17:31:33.516Z,14.40
2019-04-28T17:34:01.192Z,14.30
2019-04-28T17:36:28.548Z,14.30
2019-04-28T17:38:55.604Z,14.20
2019-04-28T17:41:23.377Z,14.10
2019-04-28T17:43:50.440Z,14.00
2019-04-28T17:46:17.485Z,13.90
2019-04-28T17:48:48.812Z,13.90
2019-04-28T17:51:16.080Z,13.80
2019-04-28T17:53:43.188Z,13.70
2019-04-28T17:56:10.359Z,13.70
2019-04-28T17:58:37.336Z,13.70
2019-04-28T18:01:09.171Z,13.60
2019-04-28T18:03:50.328Z,13.60
2019-04-28T18:06:23.177Z,13.50
2019-04-28T18:08:50.188Z,13.40
2019-04-28T18:11:17.561Z,13.30
2019-04-28T18:13:44.813Z,13.30
2019-04-28T18:16:29.076Z,13.20
2019-04-28T18:19:03.592Z,13.10
2019-04-28T18:21:31.161Z,13.00
2019-04-28T18:23:58.160Z,12.90
2019-04-28T18:26:25.203Z,12.80
2019-04-28T18:28:52.115Z,12.80
2019-04-28T18:31:33.842Z,12.70
2019-04-28T18:34:12.028Z,12.70
2019-04-28T18:36:46.740Z,12.60
2019-04-28T18:39:18.377Z,12.40
2019-04-28T18:41:56.555Z,12.30
2019-04-28T18:44:28.796Z,12.30
2019-04-28T18:46:55.794Z,12.30
2019-04-28T18:49:22.856Z,12.30
2019-04-28T18:51:50.070Z,12.30
2019-04-28T18:54:17.100Z,12.30
2019-04-28T18:56:44.045Z,12.30
2019-04-28T18:59:10.980Z,12.30
2019-04-28T19:01:46.113Z,12.30
2019-04-28T19:04:14.504Z,12.30
2019-04-28T19:06:41.620Z,12.20
2019-04-28T19:09:27.605Z,12.10
2019-04-28T19:12:14.960Z,12.00
2019-04-28T19:14:56.046Z,11.90
2019-04-28T19:17:30.903Z,11.80
2019-04-28T19:19:57.935Z,11.70
2019-04-28T19:22:25.062Z,11.70
2019-04-28T19:24:52.371Z,11.60
2019-04-28T19:27:19.605Z,11.60
2019-04-28T19:29:46.830Z,11.60
2019-04-28T19:32:14.308Z,11.50
2019-04-28T19:34:41.383Z,11.50
2019-04-28T19:37:09.839Z,11.40
2019-04-28T19:39:36.960Z,11.30
2019-04-28T19:42:04.136Z,11.30
2019-04-28T19:44:31.185Z,11.20
2019-04-28T19:46:58.204Z,11.20
2019-04-28T19:49:25.763Z,11.10
2019-04-28T19:51:52.911Z,11.00
2019-04-28T19:54:21.939Z,11.00
2019-04-28T19:56:56.788Z,10.90
2019-04-28T19:59:29.830Z,10.90
2019-04-28T20:01:57.297Z,10.80
2019-04-28T20:04:24.352Z,10.80
2019-04-28T20:06:51.417Z,10.70
2019-04-28T20:09:18.439Z,10.60
2019-04-28T20:11:45.577Z,10.60
2019-04-28T20:14:12.596Z,10.60
2019-04-28T20:16:41.088Z,10.50
2019-04-28T20:19:08.471Z,10.30
2019-04-28T20:21:36.158Z,10.30
2019-04-28T20:24:04.563Z,10.30
2019-04-28T20:26:32.084Z,10.30
2019-04-28T20:28:59.227Z,10.30
2019-04-28T20:31:27.323Z,10.30
2019-04-28T20:33:54.348Z,10.20
2019-04-28T20:36:38.764Z,10.20
2019-04-28T20:39:09.166Z,10.20
2019-04-28T20:41:36.779Z,10.20
2019-04-28T20:44:03.891Z,10.10
2019-04-28T20:46:31.099Z,10.10
2019-04-28T20:48:58.878Z,10.10
2019-04-28T20:51:26.025Z,10.10
2019-04-28T20:53:55.002Z,10.10
2019-04-28T20:56:22.178Z,10.00
2019-04-28T20:58:50.140Z,10.00
2019-04-28T21:01:17.509Z,10.00
2019-04-28T21:03:44.750Z,9.90
2019-04-28T21:06:11.675Z,9.80
2019-04-28T21:08:39.196Z,9.80
2019-04-28T21:11:07.309Z,9.80
2019-04-28T21:13:34.441Z,9.80
2019-04-28T21:16:01.552Z,9.70
2019-04-28T21:18:30.459Z,9.70
2019-04-28T21:20:57.469Z,9.60
2019-04-28T21:23:26.155Z,9.60
2019-04-28T21:25:53.121Z,9.60
2019-04-28T21:28:19.990Z,9.40
2019-04-28T21:30:47.016Z,9.40
2019-04-28T21:33:14.705Z,9.40
2019-04-28T21:35:42.858Z,9.40
2019-04-28T21:38:14.905Z,9.40
2019-04-28T21:40:43.126Z,9.40
2019-04-28T21:43:30.128Z,9.40
2019-04-28T21:46:04.950Z,9.30
2019-04-28T21:48:33.958Z,9.30
2019-04-28T21:51:01.737Z,9.30
2019-04-28T21:53:28.892Z,9.30
2019-04-28T21:55:56.031Z,9.30
2019-04-28T21:58:33.036Z,9.30
2019-04-28T22:00:55.531Z,9.30
2019-04-28T22:03:22.514Z,9.20
2019-04-28T22:05:49.535Z,9.20
2019-04-28T22:08:16.620Z,9.10
2019-04-28T22:10:43.798Z,9.10
2019-04-28T22:13:10.929Z,9.10
2019-04-28T22:15:38.040Z,9.00
2019-04-28T22:18:05.634Z,9.00
2019-04-28T22:20:32.661Z,9.00
2019-04-28T22:23:01.571Z,9.00
2019-04-28T22:25:28.572Z,9.00
2019-04-28T22:27:55.617Z,9.00
2019-04-28T22:30:22.766Z,9.00
2019-04-28T22:32:49.846Z,8.90
2019-04-28T22:35:16.961Z,8.90
2019-04-28T22:37:44.027Z,8.90
2019-04-28T22:40:11.165Z,8.90
2019-04-28T22:42:38.313Z,8.90
2019-04-28T22:45:06.321Z,8.90
2019-04-28T22:47:33.409Z,8.90
2019-04-28T22:50:00.454Z,8.90
2019-04-28T22:52:27.404Z,8.90
2019-04-28T22:54:56.408Z,8.80
2019-04-28T22:57:25.364Z,8.70
2019-04-28T22:59:57.377Z,8.70
2019-04-28T23:02:26.062Z,8.70
2019-04-28T23:04:55.086Z,8.70
2019-04-28T23:07:22.432Z,8.70
2019-04-28T23:09:49.579Z,8.70
2019-04-28T23:12:16.605Z,8.70
2019-04-28T23:14:43.672Z,8.70
2019-04-28T23:17:13.067Z,8.60
2019-04-28T23:19:42.051Z,8.60
2019-04-28T23:22:23.133Z,8.60
2019-04-28T23:24:50.249Z,8.60
2019-04-28T23:27:17.144Z,8.60
2019-04-28T23:29:44.169Z,8.60
2019-04-28T23:32:11.323Z,8.60
2019-04-28T23:34:38.443Z,8.50
2019-04-28T23:37:05.392Z,8.50
2019-04-28T23:39:32.568Z,8.50
2019-04-28T23:42:01.571Z,8.50
2019-04-28T23:44:28.629Z,8.40
2019-04-28T23:46:57.493Z,8.40
2019-04-28T23:49:25.384Z,8.30
2019-04-28T23:52:00.359Z,8.30
2019-04-28T23:54:27.600Z,8.20
2019-04-28T23:56:54.714Z,8.20
2019-04-28T23:59:21.813Z,8.10
